Groton New London Airport
KGON : now visible

Aeroporto :











RITROVATECI SU...

 
LOGIN :

Iscrizione | Disclaimer

   EN    FR    IT 

 









Sommario :    VFR   VFR Marginale   IFR   IFR Intensivo   IFR Molto Intensivo
Visibilità : 
Base nubi : 
>= 8 km
>= 3000ft
5 / 8 km
1000 / 3000 ft
1500m / 5 km
500 / 1000 ft
800 / 1500m
200 / 500 ft
< 800m
< 200 ft
Simboli :   Temporali  Nebbia  Neve Forte  Precipitazioni Forti  Vento > 20 kt






- Altitudine del aeroporto : 9 ft
- Codice IATA : GON


KGON - Groton New London

ULTIMO METAR :
  • 101114Z 10006KT 1/4SM R05/1600V2600FT FG VV002 23/22 A3001 RMK AO2 T02280222

METARs OBSOLETI :
  • 101056Z 08006KT 1/2SM R05/2000V2600FT FG VV002 22/22 A3000 RMK AO2 SLP159 T02220222
  • 101046Z 07007KT 1/2SM R05/1800V2200FT FG VV002 22/22 A3000 RMK AO2 T02220222
  • 101030Z AUTO 07005KT 1/2SM R05/2800VP6000FT FG OVC002 22/22 A3000 RMK AO2 T02220217
  • 100956Z AUTO 05005KT 1SM R05/P6000FT BR OVC002 22/22 A3000 RMK AO2 SLP158 T02220217
  • 100934Z AUTO 06004KT 1 3/4SM R05/5500VP6000FT BR OVC002 22/22 A3000 RMK AO2 T02220217
  • 100856Z AUTO 04004KT 3SM BR OVC002 22/22 A3001 RMK AO2 SLP161 T02220217 55002
  • 100845Z AUTO 03004KT 1 1/2SM R05/3500V5500FT BR OVC002 22/22 A3001 RMK AO2 T02220217
  • 100821Z AUTO 05004KT 3/4SM R05/2600V3000FT BR VV002 22/22 A3000 RMK AO2 T02220217

TAF KGON
Valido dal 10 a 08 ore il 11 a 06 ore UTC


100828Z 1008/1106 04005KT 3/4SM BR VV002
TEMPO 1010/1012 1/2SM FG
FM101300 10008KT 4SM BR OVC004
FM101600 11010KT P6SM BKN015
FM101800 09013G20KT 3SM SHRA BR SCT008 OVC015
PROB30 1020/1023 1SM +TSRA BKN008 OVC015CB
FM102300 11014G21KT 3SM SHRA BR BKN008 OVC015
FIR KZBW / America del Nord



MetMap, La meteo Aeronautica in un colpo d'occhio ! - Copyright ORBIFLY Dicembre 2007 - Disclaimer

ORBIFLY MET'MAP TEAM :

Programmazione e sviluppo : Alexandra Zaïnal
Concezione : Baudouin d'Aumeries
Aiuto per la programmazione : Marc-Olivier Méhu
Supporto tecnico e logistico : Manuel Goepfert
Aiuto per la traduzione : Arnaldo La Scala

Contatto : metmap@orbifly.com




FONTI E CREDITI :

   NOAA       Earth
Advisory